createdAt,value
2022-09-21T00:02:32.098Z,5.51
2022-09-21T00:05:18.729Z,5.44
2022-09-21T00:08:06.920Z,5.46
2022-09-21T00:10:53.107Z,5.43
2022-09-21T00:13:39.689Z,5.26
2022-09-21T00:16:26.595Z,5.46
2022-09-21T00:19:13.206Z,5.56
2022-09-21T00:21:59.418Z,5.52
2022-09-21T00:24:45.918Z,5.49
2022-09-21T00:27:32.570Z,5.45
2022-09-21T00:30:18.833Z,5.36
2022-09-21T00:33:05.312Z,5.28
2022-09-21T00:35:51.459Z,5.22
2022-09-21T00:38:38.448Z,5.14
2022-09-21T00:41:26.825Z,5.30
2022-09-21T00:44:28.989Z,5.26
2022-09-21T00:47:19.312Z,5.25
2022-09-21T00:50:11.459Z,4.97
2022-09-21T00:52:58.524Z,4.90
2022-09-21T00:55:49.900Z,5.07
2022-09-21T00:58:42.849Z,4.91
2022-09-21T01:01:29.045Z,4.93
2022-09-21T01:04:16.778Z,4.89
2022-09-21T01:07:07.505Z,4.67
2022-09-21T01:09:58.275Z,4.80
2022-09-21T01:13:18.821Z,4.91
2022-09-21T01:16:18.592Z,4.80
2022-09-21T01:19:24.846Z,4.55
2022-09-21T01:22:33.141Z,4.62
2022-09-21T01:25:53.252Z,4.36
2022-09-21T01:29:16.876Z,4.84
2022-09-21T01:32:13.117Z,4.71
2022-09-21T01:35:01.831Z,4.80
2022-09-21T01:37:56.974Z,4.63
2022-09-21T01:40:50.219Z,4.83
2022-09-21T01:43:40.402Z,4.80
2022-09-21T01:46:30.755Z,4.63
2022-09-21T01:49:23.470Z,4.70
2022-09-21T01:52:17.716Z,4.60
2022-09-21T01:55:10.692Z,4.43
2022-09-21T01:58:05.666Z,4.37
2022-09-21T02:00:55.506Z,4.52
2022-09-21T02:03:49.961Z,4.45
2022-09-21T02:06:42.462Z,4.48
2022-09-21T02:09:29.562Z,4.30
2022-09-21T02:12:19.071Z,4.05
2022-09-21T02:15:06.779Z,4.31
2022-09-21T02:18:35.974Z,4.47
2022-09-21T02:21:34.829Z,4.44
2022-09-21T02:24:43.506Z,4.40
2022-09-21T02:27:56.030Z,4.43
2022-09-21T02:30:53.544Z,4.20
2022-09-21T02:34:07.829Z,4.42
2022-09-21T02:37:25.720Z,4.31
2022-09-21T02:40:30.377Z,4.33
2022-09-21T02:43:27.871Z,4.10
2022-09-21T02:46:29.395Z,3.91
2022-09-21T02:49:26.239Z,4.21
2022-09-21T02:52:16.407Z,4.15
2022-09-21T02:55:04.082Z,3.86
2022-09-21T02:57:50.429Z,3.77
2022-09-21T03:00:37.075Z,4.19
2022-09-21T03:03:24.973Z,4.08
2022-09-21T03:06:11.612Z,4.18
2022-09-21T03:08:58.619Z,3.86
2022-09-21T03:11:44.713Z,4.02
2022-09-21T03:14:33.052Z,4.00
2022-09-21T03:17:19.977Z,3.84
2022-09-21T03:20:07.885Z,3.94
2022-09-21T03:22:54.375Z,3.75
2022-09-21T03:25:44.356Z,3.68
2022-09-21T03:28:30.970Z,3.72
2022-09-21T03:31:17.758Z,4.05
2022-09-21T03:34:03.952Z,4.00
2022-09-21T03:36:50.342Z,4.15
2022-09-21T03:39:36.685Z,4.23
2022-09-21T03:42:22.950Z,4.14
2022-09-21T03:45:11.490Z,4.04
2022-09-21T03:47:58.907Z,4.03
2022-09-21T03:50:45.546Z,3.91
2022-09-21T03:53:31.726Z,3.92
2022-09-21T03:56:17.765Z,3.85
2022-09-21T03:59:04.504Z,3.76
2022-09-21T04:01:50.898Z,3.79
2022-09-21T04:04:37.375Z,3.68
2022-09-21T04:07:23.852Z,3.58
2022-09-21T04:10:15.133Z,3.74
2022-09-21T04:13:03.364Z,3.67
2022-09-21T04:15:49.543Z,3.46
2022-09-21T04:18:37.932Z,3.71
2022-09-21T04:21:24.391Z,3.74
2022-09-21T04:24:10.472Z,3.80
2022-09-21T04:26:56.911Z,3.62
2022-09-21T04:29:44.369Z,3.79
2022-09-21T04:32:30.804Z,3.82
2022-09-21T04:35:17.406Z,3.72
2022-09-21T04:38:03.684Z,3.83
2022-09-21T04:40:59.759Z,3.95
2022-09-21T04:43:47.378Z,3.73
2022-09-21T04:46:33.871Z,3.73
2022-09-21T04:49:20.372Z,3.55
2022-09-21T04:52:06.787Z,3.70
2022-09-21T04:54:53.164Z,3.81
2022-09-21T04:57:39.692Z,3.80
2022-09-21T05:00:26.861Z,3.95
2022-09-21T05:03:13.015Z,3.72
2022-09-21T05:05:59.826Z,3.71
2022-09-21T05:09:04.969Z,3.76
2022-09-21T05:11:51.965Z,3.80
2022-09-21T05:14:38.455Z,3.77
2022-09-21T05:17:25.044Z,3.61
2022-09-21T05:20:11.697Z,3.72
2022-09-21T05:23:01.644Z,3.63
2022-09-21T05:25:47.821Z,3.52
2022-09-21T05:28:39.728Z,3.63
2022-09-21T05:32:00.095Z,3.71
2022-09-21T05:34:53.637Z,3.62
2022-09-21T05:38:01.234Z,3.63
2022-09-21T05:40:50.124Z,3.72
2022-09-21T05:43:36.667Z,3.84
2022-09-21T05:46:38.129Z,3.89
2022-09-21T05:50:00.780Z,4.04
2022-09-21T05:52:57.121Z,4.06
2022-09-21T05:55:49.840Z,4.05
2022-09-21T05:59:03.059Z,3.96
2022-09-21T06:02:03.185Z,4.29
2022-09-21T06:04:51.699Z,4.34
2022-09-21T06:07:38.234Z,4.27
2022-09-21T06:10:25.128Z,4.23
2022-09-21T06:13:11.772Z,4.52
2022-09-21T06:16:01.308Z,4.61
2022-09-21T06:18:47.861Z,4.64
2022-09-21T06:21:34.459Z,4.43
2022-09-21T06:24:23.504Z,4.24
2022-09-21T06:27:11.392Z,4.59
2022-09-21T06:29:58.585Z,4.81
2022-09-21T06:32:45.398Z,4.92
2022-09-21T06:35:35.793Z,4.87
2022-09-21T06:38:23.916Z,5.01
2022-09-21T06:41:11.299Z,5.00
2022-09-21T06:43:58.382Z,4.87
2022-09-21T06:46:45.526Z,4.91
2022-09-21T06:49:32.138Z,4.80
2022-09-21T06:52:19.258Z,5.01
2022-09-21T06:55:06.716Z,5.00
2022-09-21T06:57:53.022Z,4.88
2022-09-21T07:00:39.417Z,4.94
2022-09-21T07:03:25.577Z,5.38
2022-09-21T07:06:14.106Z,5.47
2022-09-21T07:12:08.511Z,5.72
2022-09-21T07:14:55.348Z,5.68
2022-09-21T07:17:43.071Z,5.78
2022-09-21T07:20:29.935Z,6.11
2022-09-21T07:23:19.273Z,6.21
2022-09-21T07:26:12.069Z,6.16
2022-09-21T07:28:58.541Z,6.36
2022-09-21T07:31:45.293Z,6.32
2022-09-21T07:34:35.392Z,6.30
2022-09-21T07:37:22.479Z,6.76
2022-09-21T07:40:09.698Z,7.04
2022-09-21T07:43:02.190Z,7.01
2022-09-21T07:45:58.335Z,7.13
2022-09-21T07:48:44.997Z,7.37
2022-09-21T07:51:32.012Z,7.53
2022-09-21T07:54:18.257Z,7.63
2022-09-21T07:57:23.244Z,7.93
2022-09-21T08:00:10.085Z,7.96
2022-09-21T08:03:01.145Z,8.29
2022-09-21T08:05:47.613Z,8.33
2022-09-21T08:08:34.110Z,8.35
2022-09-21T08:11:22.501Z,8.50
2022-09-21T08:14:09.968Z,8.71
2022-09-21T08:16:56.396Z,8.73
2022-09-21T08:19:42.523Z,8.95
2022-09-21T08:22:28.830Z,8.95
2022-09-21T08:25:15.042Z,9.14
2022-09-21T08:28:04.989Z,9.35
2022-09-21T08:30:54.209Z,9.50
2022-09-21T08:33:40.487Z,9.66
2022-09-21T08:36:27.032Z,9.74
2022-09-21T08:39:13.317Z,9.81
2022-09-21T08:42:41.071Z,10.01
2022-09-21T08:45:34.727Z,10.13
2022-09-21T08:48:30.002Z,10.34
2022-09-21T08:51:23.216Z,10.46
2022-09-21T08:54:19.257Z,10.62
2022-09-21T08:57:17.686Z,10.53
2022-09-21T09:00:13.034Z,10.56
2022-09-21T09:03:35.569Z,11.03
2022-09-21T09:06:37.884Z,11.08
2022-09-21T09:09:50.485Z,11.20
2022-09-21T09:12:53.587Z,11.28
2022-09-21T09:16:01.114Z,11.40
2022-09-21T09:19:23.142Z,11.54
2022-09-21T09:22:17.577Z,11.54
2022-09-21T09:25:15.126Z,11.76
2022-09-21T09:28:15.473Z,11.84
2022-09-21T09:31:18.275Z,11.97
2022-09-21T09:34:13.721Z,12.12
2022-09-21T09:37:10.026Z,11.84
2022-09-21T09:40:00.733Z,12.14
2022-09-21T09:43:06.006Z,12.07
2022-09-21T09:46:03.460Z,12.39
2022-09-21T09:49:09.282Z,12.38
2022-09-21T09:51:55.593Z,12.39
2022-09-21T09:54:42.226Z,12.51
2022-09-21T09:57:31.963Z,12.68
2022-09-21T10:00:20.457Z,12.87
2022-09-21T10:03:16.673Z,12.82
2022-09-21T10:06:03.386Z,13.01
2022-09-21T10:08:49.863Z,12.94
2022-09-21T10:11:38.456Z,13.10
2022-09-21T10:14:27.196Z,13.23
2022-09-21T10:17:17.515Z,13.21
2022-09-21T10:20:06.914Z,13.22
2022-09-21T10:22:55.330Z,12.91
2022-09-21T10:25:42.347Z,13.25
2022-09-21T10:28:29.010Z,13.26
2022-09-21T10:31:23.714Z,13.37
2022-09-21T10:34:15.125Z,13.45
2022-09-21T10:37:22.913Z,13.44
2022-09-21T10:40:21.447Z,13.49
2022-09-21T10:43:23.183Z,13.37
2022-09-21T10:46:11.925Z,13.29
2022-09-21T10:48:58.504Z,13.59
2022-09-21T10:51:47.306Z,13.65
2022-09-21T10:54:33.967Z,13.90
2022-09-21T10:57:23.901Z,13.86
2022-09-21T11:00:25.730Z,14.04
2022-09-21T11:03:30.117Z,14.27
2022-09-21T11:06:20.493Z,14.45
2022-09-21T11:09:12.316Z,14.45
2022-09-21T11:12:41.103Z,14.46
2022-09-21T11:15:42.739Z,15.05
2022-09-21T11:18:44.542Z,15.22
2022-09-21T11:21:57.729Z,14.90
2022-09-21T11:24:57.106Z,14.91
2022-09-21T11:27:49.274Z,14.91
2022-09-21T11:30:52.242Z,14.74
2022-09-21T11:34:16.441Z,15.04
2022-09-21T11:38:04.298Z,15.45
2022-09-21T11:41:06.372Z,15.50
2022-09-21T11:44:09.359Z,15.41
2022-09-21T11:47:34.417Z,15.38
2022-09-21T11:50:40.998Z,15.39
2022-09-21T11:53:46.737Z,15.05
2022-09-21T11:57:01.943Z,14.76
2022-09-21T12:00:07.088Z,14.76
2022-09-21T12:03:31.361Z,14.79
2022-09-21T12:06:44.508Z,14.53
2022-09-21T12:09:57.606Z,14.73
2022-09-21T12:12:54.293Z,15.45
2022-09-21T12:16:25.262Z,15.86
2022-09-21T12:19:17.271Z,16.36
2022-09-21T12:22:13.143Z,16.60
2022-09-21T12:25:13.183Z,16.76
2022-09-21T12:27:59.478Z,17.02
2022-09-21T12:30:51.255Z,16.79
2022-09-21T12:33:45.338Z,16.46
2022-09-21T12:36:40.968Z,15.56
2022-09-21T12:39:39.561Z,15.41
2022-09-21T12:42:41.757Z,15.32
2022-09-21T12:45:33.051Z,15.19
2022-09-21T12:48:34.661Z,15.79
2022-09-21T12:51:32.852Z,15.69
2022-09-21T12:54:36.260Z,16.16
2022-09-21T12:58:10.943Z,16.09
2022-09-21T13:01:16.742Z,15.96
2022-09-21T13:04:47.778Z,16.51
2022-09-21T13:07:55.777Z,16.90
2022-09-21T13:10:55.372Z,16.67
2022-09-21T13:13:52.877Z,16.45
2022-09-21T13:16:39.674Z,15.73
2022-09-21T13:19:30.040Z,15.68
2022-09-21T13:22:19.892Z,15.53
2022-09-21T13:25:19.481Z,15.17
2022-09-21T13:28:15.462Z,15.74
2022-09-21T13:31:39.789Z,16.02
2022-09-21T13:34:43.360Z,16.70
2022-09-21T13:37:30.332Z,17.22
2022-09-21T13:40:16.493Z,17.54
2022-09-21T13:43:17.318Z,17.62
2022-09-21T13:46:04.157Z,17.66
2022-09-21T13:48:53.765Z,17.35
2022-09-21T13:52:14.352Z,17.15
2022-09-21T13:55:04.243Z,17.11
2022-09-21T13:57:55.669Z,16.85
2022-09-21T14:00:51.215Z,16.23
2022-09-21T14:03:41.453Z,16.06
2022-09-21T14:06:35.645Z,15.82
2022-09-21T14:09:32.933Z,15.95
2022-09-21T14:12:23.487Z,15.85
2022-09-21T14:15:16.087Z,16.32
2022-09-21T14:18:35.722Z,16.22
2022-09-21T14:21:23.024Z,16.49
2022-09-21T14:24:20.425Z,16.72
2022-09-21T14:27:29.853Z,16.78
2022-09-21T14:30:25.989Z,16.37
2022-09-21T14:33:25.308Z,16.53
2022-09-21T14:36:19.521Z,16.41
2022-09-21T14:39:13.371Z,16.32
2022-09-21T14:42:12.459Z,15.93
2022-09-21T14:45:02.077Z,15.91
2022-09-21T14:47:57.222Z,15.96
2022-09-21T14:50:59.594Z,16.00
2022-09-21T14:54:06.450Z,16.03
2022-09-21T14:57:10.133Z,16.14
2022-09-21T15:00:20.886Z,16.30
2022-09-21T15:03:28.509Z,16.33
2022-09-21T15:06:39.928Z,16.37
2022-09-21T15:09:59.922Z,15.85
2022-09-21T15:13:08.222Z,15.73
2022-09-21T15:16:17.281Z,15.48
2022-09-21T15:19:14.334Z,15.41
2022-09-21T15:22:15.409Z,15.59
2022-09-21T15:25:05.926Z,15.31
2022-09-21T15:27:52.858Z,15.59
2022-09-21T15:30:45.749Z,15.48
2022-09-21T15:33:36.643Z,15.44
2022-09-21T15:36:28.114Z,15.25
2022-09-21T15:39:29.309Z,15.13
2022-09-21T15:42:22.747Z,15.02
2022-09-21T15:45:19.057Z,15.04
2022-09-21T15:48:13.489Z,15.04
2022-09-21T15:51:10.461Z,15.14
2022-09-21T15:54:26.903Z,14.62
2022-09-21T15:57:41.264Z,14.93
2022-09-21T16:00:31.721Z,15.00
2022-09-21T16:03:20.845Z,15.02
2022-09-21T16:06:22.449Z,15.08
2022-09-21T16:09:24.389Z,15.11
2022-09-21T16:12:26.046Z,14.98
2022-09-21T16:15:29.105Z,14.88
2022-09-21T16:18:38.981Z,15.08
2022-09-21T16:21:28.174Z,15.00
2022-09-21T16:24:22.834Z,14.78
2022-09-21T16:27:17.150Z,14.95
2022-09-21T16:30:04.287Z,14.84
2022-09-21T16:32:52.219Z,14.48
2022-09-21T16:35:40.831Z,14.76
2022-09-21T16:38:27.279Z,14.55
2022-09-21T16:41:16.884Z,14.55
2022-09-21T16:44:03.663Z,14.42
2022-09-21T16:46:56.312Z,14.41
2022-09-21T16:49:43.261Z,14.25
2022-09-21T16:52:30.584Z,14.23
2022-09-21T16:55:17.120Z,14.15
2022-09-21T16:58:03.506Z,13.95
2022-09-21T17:01:00.014Z,14.05
2022-09-21T17:03:47.828Z,13.66
2022-09-21T17:06:36.702Z,13.84
2022-09-21T17:09:35.558Z,13.42
2022-09-21T17:12:22.127Z,13.00
2022-09-21T17:15:12.551Z,13.53
2022-09-21T17:17:59.210Z,13.46
2022-09-21T17:20:45.731Z,13.22
2022-09-21T17:23:31.895Z,13.10
2022-09-21T17:26:19.427Z,12.92
2022-09-21T17:29:22.350Z,12.60
2022-09-21T17:32:10.758Z,12.75
2022-09-21T17:35:14.111Z,12.86
2022-09-21T17:38:00.787Z,12.75
2022-09-21T17:40:47.279Z,12.71
2022-09-21T17:43:56.363Z,12.29
2022-09-21T17:46:52.120Z,11.98
2022-09-21T17:49:38.622Z,11.78
2022-09-21T17:52:43.971Z,11.58
2022-09-21T17:55:30.702Z,10.85
2022-09-21T17:58:38.440Z,11.21
2022-09-21T18:01:52.445Z,11.00
2022-09-21T18:04:39.314Z,10.69
2022-09-21T18:07:25.979Z,10.64
2022-09-21T18:10:14.089Z,10.50
2022-09-21T18:13:12.632Z,10.48
2022-09-21T18:16:33.530Z,10.20
2022-09-21T18:20:02.640Z,10.20
2022-09-21T18:23:13.824Z,10.12
2022-09-21T18:26:00.580Z,9.88
2022-09-21T18:28:57.845Z,9.54
2022-09-21T18:31:56.346Z,9.63
2022-09-21T18:35:08.619Z,9.69
2022-09-21T18:38:32.075Z,9.64
2022-09-21T18:41:31.012Z,9.46
2022-09-21T18:44:34.096Z,9.42
2022-09-21T18:47:28.567Z,9.08
2022-09-21T18:50:34.506Z,9.24
2022-09-21T18:53:29.734Z,9.18
2022-09-21T18:56:16.667Z,9.07
2022-09-21T18:59:05.802Z,8.53
2022-09-21T19:01:53.052Z,8.81
2022-09-21T19:04:39.862Z,8.70
2022-09-21T19:07:54.151Z,8.52
2022-09-21T19:10:51.010Z,8.49
2022-09-21T19:13:54.539Z,8.46
2022-09-21T19:17:29.381Z,8.56
2022-09-21T19:20:44.074Z,8.35
2022-09-21T19:23:59.131Z,8.29
2022-09-21T19:27:08.736Z,8.22
2022-09-21T19:30:08.439Z,8.12
2022-09-21T19:33:00.466Z,8.11
2022-09-21T19:35:46.778Z,7.91
2022-09-21T19:38:34.218Z,7.45
2022-09-21T19:41:43.450Z,7.92
2022-09-21T19:44:45.242Z,7.82
2022-09-21T19:47:38.614Z,7.75
2022-09-21T19:50:40.740Z,7.68
2022-09-21T19:53:46.281Z,7.64
2022-09-21T19:56:55.395Z,7.56
2022-09-21T19:59:45.556Z,7.34
2022-09-21T20:02:42.361Z,7.41
2022-09-21T20:05:54.810Z,7.34
2022-09-21T20:09:05.245Z,7.23
2022-09-21T20:12:26.635Z,7.17
2022-09-21T20:15:29.331Z,7.01
2022-09-21T20:18:29.434Z,7.13
2022-09-21T20:21:19.093Z,7.08
2022-09-21T20:24:19.745Z,6.78
2022-09-21T20:27:39.163Z,6.98
2022-09-21T20:30:31.381Z,6.90
2022-09-21T20:33:22.635Z,6.65
2022-09-21T20:36:09.474Z,6.62
2022-09-21T20:38:57.715Z,6.57
2022-09-21T20:41:44.117Z,6.66
2022-09-21T20:44:31.170Z,6.39
2022-09-21T20:47:21.168Z,6.59
2022-09-21T20:50:11.596Z,6.48
2022-09-21T20:52:57.740Z,6.53
2022-09-21T20:55:53.148Z,6.54
2022-09-21T20:58:39.716Z,6.50
2022-09-21T21:01:26.945Z,6.48
2022-09-21T21:04:14.083Z,6.38
2022-09-21T21:07:00.165Z,6.22
2022-09-21T21:09:46.496Z,6.21
2022-09-21T21:12:32.916Z,6.04
2022-09-21T21:15:19.295Z,6.18
2022-09-21T21:18:05.474Z,6.13
2022-09-21T21:20:52.414Z,5.93
2022-09-21T21:23:57.274Z,6.17
2022-09-21T21:27:01.165Z,6.04
2022-09-21T21:29:52.901Z,6.00
2022-09-21T21:32:39.213Z,5.95
2022-09-21T21:35:25.894Z,5.73
2022-09-21T21:38:13.407Z,5.71
2022-09-21T21:41:00.190Z,5.73
2022-09-21T21:43:46.835Z,5.63
2022-09-21T21:46:33.086Z,5.68
2022-09-21T21:49:20.922Z,5.82
2022-09-21T21:52:08.278Z,5.76
2022-09-21T21:54:54.697Z,5.51
2022-09-21T21:57:41.321Z,5.59
2022-09-21T22:00:27.738Z,5.54
2022-09-21T22:03:13.897Z,5.49
2022-09-21T22:06:00.574Z,5.40
2022-09-21T22:08:46.914Z,5.42
2022-09-21T22:11:33.773Z,5.33
2022-09-21T22:14:20.151Z,5.31
2022-09-21T22:17:06.318Z,5.32
2022-09-21T22:19:54.029Z,5.02
2022-09-21T22:22:40.914Z,4.96
2022-09-21T22:25:28.326Z,5.22
2022-09-21T22:28:14.372Z,5.30
2022-09-21T22:31:01.731Z,5.25
2022-09-21T22:33:48.595Z,5.14
2022-09-21T22:36:36.623Z,5.41
2022-09-21T22:39:22.544Z,5.04
2022-09-21T22:42:11.459Z,4.90
2022-09-21T22:44:58.045Z,5.01
2022-09-21T22:47:44.494Z,4.93
2022-09-21T22:50:30.813Z,4.97
2022-09-21T22:53:17.653Z,4.80
2022-09-21T22:56:15.630Z,4.90
2022-09-21T22:59:04.410Z,4.85
2022-09-21T23:01:50.764Z,4.78
2022-09-21T23:04:37.179Z,4.80
2022-09-21T23:07:23.826Z,4.50
2022-09-21T23:10:10.246Z,4.60
2022-09-21T23:12:58.031Z,4.53
2022-09-21T23:15:44.335Z,4.45
2022-09-21T23:18:31.560Z,4.63
2022-09-21T23:21:20.872Z,4.66
2022-09-21T23:24:07.655Z,4.57
2022-09-21T23:26:54.190Z,4.66
2022-09-21T23:29:40.378Z,4.52
2022-09-21T23:32:27.781Z,4.51
2022-09-21T23:35:14.320Z,4.34
2022-09-21T23:38:00.372Z,4.42
2022-09-21T23:40:47.015Z,4.29
2022-09-21T23:43:34.863Z,4.40
2022-09-21T23:46:25.316Z,4.52
2022-09-21T23:49:11.600Z,4.23
2022-09-21T23:51:57.945Z,4.11
2022-09-21T23:54:45.460Z,4.39
2022-09-21T23:57:31.543Z,4.31
